sensor_id;sensor_type;location;lat;lon;timestamp;pressure;altitude;pressure_sealevel;temperature;humidity
70841;BME280;58465;51.534;9.934;2023-05-27T00:00:45;101129.19;;;12.33;60.52
70841;BME280;58465;51.534;9.934;2023-05-27T00:03:11;101130.84;;;12.42;59.92
70841;BME280;58465;51.534;9.934;2023-05-27T00:05:36;101132.78;;;12.31;60.65
70841;BME280;58465;51.534;9.934;2023-05-27T00:08:01;101126.44;;;12.39;59.96
70841;BME280;58465;51.534;9.934;2023-05-27T00:10:26;101124.78;;;12.29;60.25
70841;BME280;58465;51.534;9.934;2023-05-27T00:12:52;101130.97;;;12.31;60.33
70841;BME280;58465;51.534;9.934;2023-05-27T00:15:17;101130.09;;;12.31;60.56
70841;BME280;58465;51.534;9.934;2023-05-27T00:17:43;101126.56;;;12.30;60.39
70841;BME280;58465;51.534;9.934;2023-05-27T00:20:08;101135.66;;;12.15;60.85
70841;BME280;58465;51.534;9.934;2023-05-27T00:22:35;101144.53;;;12.20;60.97
70841;BME280;58465;51.534;9.934;2023-05-27T00:25:01;101135.63;;;12.20;60.98
70841;BME280;58465;51.534;9.934;2023-05-27T00:27:27;101142.75;;;12.19;61.21
70841;BME280;58465;51.534;9.934;2023-05-27T00:29:52;101141.00;;;12.17;61.01
70841;BME280;58465;51.534;9.934;2023-05-27T00:32:20;101137.41;;;12.19;60.87
70841;BME280;58465;51.534;9.934;2023-05-27T00:34:45;101140.97;;;12.18;60.76
70841;BME280;58465;51.534;9.934;2023-05-27T00:37:11;101141.91;;;12.14;60.92
70841;BME280;58465;51.534;9.934;2023-05-27T00:39:36;101142.88;;;12.10;61.27
70841;BME280;58465;51.534;9.934;2023-05-27T00:42:01;101150.06;;;12.04;61.28
70841;BME280;58465;51.534;9.934;2023-05-27T00:44:27;101153.59;;;12.07;61.02
70841;BME280;58465;51.534;9.934;2023-05-27T00:46:53;101151.94;;;11.96;61.47
70841;BME280;58465;51.534;9.934;2023-05-27T00:49:18;101157.22;;;12.02;61.57
70841;BME280;58465;51.534;9.934;2023-05-27T00:51:44;101148.28;;;12.03;61.28
70841;BME280;58465;51.534;9.934;2023-05-27T00:54:09;101156.41;;;11.92;61.55
70841;BME280;58465;51.534;9.934;2023-05-27T00:56:36;101156.38;;;11.97;61.64
70841;BME280;58465;51.534;9.934;2023-05-27T00:59:01;101146.66;;;11.89;61.67
70841;BME280;58465;51.534;9.934;2023-05-27T01:01:27;101152.00;;;11.89;61.83
70841;BME280;58465;51.534;9.934;2023-05-27T01:03:53;101168.09;;;11.88;61.63
70841;BME280;58465;51.534;9.934;2023-05-27T01:06:30;101156.59;;;11.78;62.09
70841;BME280;58465;51.534;9.934;2023-05-27T01:09:08;101154.78;;;11.74;62.20
70841;BME280;58465;51.534;9.934;2023-05-27T01:11:40;101154.78;;;11.80;62.22
70841;BME280;58465;51.534;9.934;2023-05-27T01:14:10;101158.41;;;11.72;62.40
70841;BME280;58465;51.534;9.934;2023-05-27T01:16:37;101153.06;;;11.69;62.16
70841;BME280;58465;51.534;9.934;2023-05-27T01:19:14;101148.59;;;11.69;62.34
70841;BME280;58465;51.534;9.934;2023-05-27T01:21:40;101145.06;;;11.67;62.42
70841;BME280;58465;51.534;9.934;2023-05-27T01:24:09;101145.88;;;11.74;62.22
70841;BME280;58465;51.534;9.934;2023-05-27T01:26:35;101150.38;;;11.70;62.39
70841;BME280;58465;51.534;9.934;2023-05-27T01:29:00;101142.38;;;11.69;62.01
70841;BME280;58465;51.534;9.934;2023-05-27T01:31:32;101145.06;;;11.66;62.34
70841;BME280;58465;51.534;9.934;2023-05-27T01:34:02;101148.59;;;11.69;61.91
70841;BME280;58465;51.534;9.934;2023-05-27T01:36:31;101143.28;;;11.66;62.17
70841;BME280;58465;51.534;9.934;2023-05-27T01:38:58;101138.88;;;11.61;62.13
70841;BME280;58465;51.534;9.934;2023-05-27T01:41:25;101152.38;;;11.48;62.94
70841;BME280;58465;51.534;9.934;2023-05-27T01:43:52;101148.88;;;11.39;63.22
70841;BME280;58465;51.534;9.934;2023-05-27T01:46:18;101149.75;;;11.41;62.97
70841;BME280;58465;51.534;9.934;2023-05-27T01:48:43;101152.50;;;11.32;63.16
70841;BME280;58465;51.534;9.934;2023-05-27T01:51:08;101154.22;;;11.40;62.97
70841;BME280;58465;51.534;9.934;2023-05-27T01:53:34;101151.53;;;11.43;62.83
70841;BME280;58465;51.534;9.934;2023-05-27T01:55:59;101152.38;;;11.44;62.76
70841;BME280;58465;51.534;9.934;2023-05-27T01:58:24;101156.00;;;11.40;63.03
70841;BME280;58465;51.534;9.934;2023-05-27T02:00:50;101145.31;;;11.37;62.86
70841;BME280;58465;51.534;9.934;2023-05-27T02:03:15;101148.88;;;11.39;63.10
70841;BME280;58465;51.534;9.934;2023-05-27T02:05:40;101144.34;;;11.44;62.73
70841;BME280;58465;51.534;9.934;2023-05-27T02:08:06;101152.44;;;11.41;62.88
70841;BME280;58465;51.534;9.934;2023-05-27T02:10:31;101152.47;;;11.35;63.25
70841;BME280;58465;51.534;9.934;2023-05-27T02:12:57;101151.63;;;11.28;63.41
70841;BME280;58465;51.534;9.934;2023-05-27T02:15:22;101138.31;;;11.24;63.55
70841;BME280;58465;51.534;9.934;2023-05-27T02:17:48;101143.66;;;11.24;63.37
70841;BME280;58465;51.534;9.934;2023-05-27T02:20:20;101148.13;;;11.22;63.83
70841;BME280;58465;51.534;9.934;2023-05-27T02:22:45;101144.59;;;11.16;64.07
70841;BME280;58465;51.534;9.934;2023-05-27T02:25:10;101139.31;;;11.07;64.23
70841;BME280;58465;51.534;9.934;2023-05-27T02:27:36;101145.59;;;11.03;64.50
70841;BME280;58465;51.534;9.934;2023-05-27T02:30:01;101146.47;;;11.04;64.45
70841;BME280;58465;51.534;9.934;2023-05-27T02:32:26;101135.78;;;11.04;64.21
70841;BME280;58465;51.534;9.934;2023-05-27T02:34:52;101147.44;;;10.92;64.59
70841;BME280;58465;51.534;9.934;2023-05-27T02:37:17;101140.38;;;10.84;64.83
70841;BME280;58465;51.534;9.934;2023-05-27T02:39:42;101153.78;;;10.76;65.05
70841;BME280;58465;51.534;9.934;2023-05-27T02:42:08;101147.56;;;10.69;65.46
70841;BME280;58465;51.534;9.934;2023-05-27T02:44:33;101147.50;;;10.77;65.00
70841;BME280;58465;51.534;9.934;2023-05-27T02:46:58;101140.38;;;10.79;64.81
70841;BME280;58465;51.534;9.934;2023-05-27T02:49:23;101140.38;;;10.77;64.80
70841;BME280;58465;51.534;9.934;2023-05-27T02:51:49;101129.75;;;10.73;65.17
70841;BME280;58465;51.534;9.934;2023-05-27T02:54:14;101138.66;;;10.73;65.57
70841;BME280;58465;51.534;9.934;2023-05-27T02:56:39;101135.09;;;10.76;65.19
70841;BME280;58465;51.534;9.934;2023-05-27T02:59:05;101139.50;;;10.78;65.39
70841;BME280;58465;51.534;9.934;2023-05-27T03:01:30;101129.69;;;10.82;64.79
70841;BME280;58465;51.534;9.934;2023-05-27T03:03:56;101143.00;;;10.93;64.69
70841;BME280;58465;51.534;9.934;2023-05-27T03:06:21;101143.88;;;10.93;64.46
70841;BME280;58465;51.534;9.934;2023-05-27T03:08:46;101143.88;;;10.93;64.68
70841;BME280;58465;51.534;9.934;2023-05-27T03:11:12;101136.78;;;10.86;64.98
70841;BME280;58465;51.534;9.934;2023-05-27T03:13:37;101137.69;;;10.85;64.83
70841;BME280;58465;51.534;9.934;2023-05-27T03:16:02;101141.28;;;10.81;64.97
70841;BME280;58465;51.534;9.934;2023-05-27T03:18:28;101134.22;;;10.68;65.05
70841;BME280;58465;51.534;9.934;2023-05-27T03:20:53;101133.41;;;10.51;65.04
70841;BME280;58465;51.534;9.934;2023-05-27T03:23:18;101138.84;;;10.35;65.51
70841;BME280;58465;51.534;9.934;2023-05-27T03:25:44;101134.41;;;10.34;65.19
70841;BME280;58465;51.534;9.934;2023-05-27T03:28:09;101142.44;;;10.25;65.34
70841;BME280;58465;51.534;9.934;2023-05-27T03:30:34;101135.31;;;10.12;65.73
70841;BME280;58465;51.534;9.934;2023-05-27T03:33:01;101130.88;;;10.11;65.62
70841;BME280;58465;51.534;9.934;2023-05-27T03:35:26;101133.53;;;10.11;65.60
70841;BME280;58465;51.534;9.934;2023-05-27T03:37:51;101133.56;;;10.08;65.36
70841;BME280;58465;51.534;9.934;2023-05-27T03:40:17;101137.13;;;10.07;65.61
70841;BME280;58465;51.534;9.934;2023-05-27T03:42:42;101133.56;;;10.08;65.47
70841;BME280;58465;51.534;9.934;2023-05-27T03:45:07;101132.69;;;10.08;65.62
70841;BME280;58465;51.534;9.934;2023-05-27T03:47:33;101136.25;;;10.08;65.78
70841;BME280;58465;51.534;9.934;2023-05-27T03:50:00;101123.78;;;10.02;65.87
70841;BME280;58465;51.534;9.934;2023-05-27T03:52:25;101127.38;;;9.97;66.46
70841;BME280;58465;51.534;9.934;2023-05-27T03:54:50;101124.72;;;9.98;66.15
70841;BME280;58465;51.534;9.934;2023-05-27T03:57:16;101125.56;;;10.05;66.24
70841;BME280;58465;51.534;9.934;2023-05-27T03:59:41;101127.34;;;10.04;66.26
70841;BME280;58465;51.534;9.934;2023-05-27T04:02:06;101120.22;;;10.07;66.09
70841;BME280;58465;51.534;9.934;2023-05-27T04:04:31;101124.69;;;10.09;66.17
70841;BME280;58465;51.534;9.934;2023-05-27T04:06:57;101123.75;;;10.12;66.24
70841;BME280;58465;51.534;9.934;2023-05-27T04:09:22;101120.19;;;10.13;66.13
70841;BME280;58465;51.534;9.934;2023-05-27T04:11:47;101121.09;;;10.10;66.19
70841;BME280;58465;51.534;9.934;2023-05-27T04:14:13;101122.88;;;10.23;66.02
70841;BME280;58465;51.534;9.934;2023-05-27T04:16:38;101129.06;;;10.33;65.86
70841;BME280;58465;51.534;9.934;2023-05-27T04:19:06;101133.50;;;10.35;65.60
70841;BME280;58465;51.534;9.934;2023-05-27T04:21:32;101121.94;;;10.30;66.04
70841;BME280;58465;51.534;9.934;2023-05-27T04:23:57;101120.19;;;10.28;65.94
70841;BME280;58465;51.534;9.934;2023-05-27T04:26:22;101120.19;;;10.28;66.23
70841;BME280;58465;51.534;9.934;2023-05-27T04:28:48;101128.16;;;10.34;65.83
70841;BME280;58465;51.534;9.934;2023-05-27T04:31:13;101128.09;;;10.48;65.34
70841;BME280;58465;51.534;9.934;2023-05-27T04:33:41;101121.03;;;10.34;65.56
70841;BME280;58465;51.534;9.934;2023-05-27T04:36:07;101129.94;;;10.32;65.74
70841;BME280;58465;51.534;9.934;2023-05-27T04:38:32;101129.06;;;10.34;65.72
70841;BME280;58465;51.534;9.934;2023-05-27T04:40:58;101141.47;;;10.38;65.54
70841;BME280;58465;51.534;9.934;2023-05-27T04:43:24;101135.25;;;10.43;65.51
70841;BME280;58465;51.534;9.934;2023-05-27T04:45:51;101145.84;;;10.58;65.37
70841;BME280;58465;51.534;9.934;2023-05-27T04:48:17;101144.09;;;10.57;65.42
70841;BME280;58465;51.534;9.934;2023-05-27T04:50:43;101148.59;;;10.44;66.32
70841;BME280;58465;51.534;9.934;2023-05-27T04:53:08;101154.78;;;10.57;65.56
70841;BME280;58465;51.534;9.934;2023-05-27T04:55:34;101153.78;;;10.71;65.39
70841;BME280;58465;51.534;9.934;2023-05-27T04:57:59;101153.75;;;10.77;64.85
70841;BME280;58465;51.534;9.934;2023-05-27T05:00:28;101153.78;;;10.76;64.95
70841;BME280;58465;51.534;9.934;2023-05-27T05:03:12;101151.13;;;10.73;64.83
70841;BME280;58465;51.534;9.934;2023-05-27T05:05:45;101150.19;;;10.77;64.99
70841;BME280;58465;51.534;9.934;2023-05-27T05:08:10;101148.38;;;10.84;64.39
70841;BME280;58465;51.534;9.934;2023-05-27T05:10:36;101149.22;;;10.93;64.24
70841;BME280;58465;51.534;9.934;2023-05-27T05:13:01;101147.44;;;10.95;64.24
70841;BME280;58465;51.534;9.934;2023-05-27T05:15:49;101144.72;;;10.98;64.22
70841;BME280;58465;51.534;9.934;2023-05-27T05:18:14;101140.19;;;11.09;64.00
70841;BME280;58465;51.534;9.934;2023-05-27T05:20:39;101134.84;;;11.09;64.00
70841;BME280;58465;51.534;9.934;2023-05-27T05:23:07;101133.88;;;11.23;63.61
70841;BME280;58465;51.534;9.934;2023-05-27T05:25:33;101134.69;;;11.26;63.68
70841;BME280;58465;51.534;9.934;2023-05-27T05:28:06;101131.91;;;11.43;63.05
70841;BME280;58465;51.534;9.934;2023-05-27T05:30:31;101127.44;;;11.43;62.85
70841;BME280;58465;51.534;9.934;2023-05-27T05:32:57;101128.28;;;11.45;63.12
70841;BME280;58465;51.534;9.934;2023-05-27T05:35:22;101126.50;;;11.49;63.31
70841;BME280;58465;51.534;9.934;2023-05-27T05:37:48;101120.94;;;11.72;62.74
70841;BME280;58465;51.534;9.934;2023-05-27T05:40:14;101121.72;;;11.84;62.18
70841;BME280;58465;51.534;9.934;2023-05-27T05:42:39;101126.25;;;11.78;62.60
70841;BME280;58465;51.534;9.934;2023-05-27T05:45:05;101135.94;;;11.91;62.13
70841;BME280;58465;51.534;9.934;2023-05-27T05:47:30;101131.22;;;12.11;61.74
70841;BME280;58465;51.534;9.934;2023-05-27T05:49:56;101130.16;;;12.26;61.26
70841;BME280;58465;51.534;9.934;2023-05-27T05:52:21;101129.50;;;12.07;61.92
70841;BME280;58465;51.534;9.934;2023-05-27T05:54:46;101134.94;;;12.01;62.05
70841;BME280;58465;51.534;9.934;2023-05-27T05:57:11;101133.84;;;12.16;61.79
70841;BME280;58465;51.534;9.934;2023-05-27T05:59:36;101137.41;;;12.19;61.79
70841;BME280;58465;51.534;9.934;2023-05-27T06:02:02;101135.25;;;12.47;61.25
70841;BME280;58465;51.534;9.934;2023-05-27T06:04:27;101135.84;;;12.69;60.79
70841;BME280;58465;51.534;9.934;2023-05-27T06:06:52;101127.78;;;12.69;60.80
70841;BME280;58465;51.534;9.934;2023-05-27T06:09:17;101133.00;;;12.81;60.36
70841;BME280;58465;51.534;9.934;2023-05-27T06:11:43;101121.09;;;13.00;59.96
70841;BME280;58465;51.534;9.934;2023-05-27T06:14:08;101124.63;;;13.04;59.89
70841;BME280;58465;51.534;9.934;2023-05-27T06:16:33;101136.59;;;13.40;59.57
70841;BME280;58465;51.534;9.934;2023-05-27T06:19:01;101133.59;;;13.57;58.94
70841;BME280;58465;51.534;9.934;2023-05-27T06:21:27;101137.19;;;13.56;58.94
70841;BME280;58465;51.534;9.934;2023-05-27T06:23:52;101135.53;;;13.49;59.31
70841;BME280;58465;51.534;9.934;2023-05-27T06:26:17;101137.13;;;13.60;59.44
70841;BME280;58465;51.534;9.934;2023-05-27T06:28:42;101127.06;;;14.19;58.26
70841;BME280;58465;51.534;9.934;2023-05-27T06:31:08;101129.19;;;15.25;55.28
70841;BME280;58465;51.534;9.934;2023-05-27T06:33:33;101122.63;;;16.36;52.33
70841;BME280;58465;51.534;9.934;2023-05-27T06:35:58;101128.66;;;16.76;50.03
70841;BME280;58465;51.534;9.934;2023-05-27T06:38:23;101127.59;;;17.64;48.85
70841;BME280;58465;51.534;9.934;2023-05-27T06:40:49;101137.53;;;16.49;51.52
70841;BME280;58465;51.534;9.934;2023-05-27T06:43:14;101121.94;;;16.60;51.17
70841;BME280;58465;51.534;9.934;2023-05-27T06:45:39;101116.06;;;16.46;50.98
70841;BME280;58465;51.534;9.934;2023-05-27T06:48:06;101118.16;;;16.67;50.28
70841;BME280;58465;51.534;9.934;2023-05-27T06:50:32;101121.75;;;16.95;49.37
70841;BME280;58465;51.534;9.934;2023-05-27T06:52:57;101121.97;;;15.96;51.69
70841;BME280;58465;51.534;9.934;2023-05-27T06:55:23;101127.63;;;15.52;53.16
70841;BME280;58465;51.534;9.934;2023-05-27T06:57:48;101119.75;;;16.12;51.74
70841;BME280;58465;51.534;9.934;2023-05-27T07:00:13;101121.97;;;16.27;51.43
70841;BME280;58465;51.534;9.934;2023-05-27T07:02:39;101121.28;;;16.52;50.76
70841;BME280;58465;51.534;9.934;2023-05-27T07:05:04;101115.09;;;16.48;50.51
70841;BME280;58465;51.534;9.934;2023-05-27T07:07:30;101110.50;;;16.21;51.17
70841;BME280;58465;51.534;9.934;2023-05-27T07:09:55;101116.47;;;16.32;51.22
70841;BME280;58465;51.534;9.934;2023-05-27T07:12:21;101107.34;;;16.36;50.58
70841;BME280;58465;51.534;9.934;2023-05-27T07:14:48;101111.25;;;16.26;51.38
70841;BME280;58465;51.534;9.934;2023-05-27T07:17:13;101107.50;;;16.62;50.28
70841;BME280;58465;51.534;9.934;2023-05-27T07:19:38;101102.22;;;16.58;49.75
70841;BME280;58465;51.534;9.934;2023-05-27T07:22:04;101104.41;;;16.44;50.18
70841;BME280;58465;51.534;9.934;2023-05-27T07:24:29;101103.13;;;16.57;49.79
70841;BME280;58465;51.534;9.934;2023-05-27T07:26:54;101093.63;;;17.02;48.66
70841;BME280;58465;51.534;9.934;2023-05-27T07:29:20;101090.75;;;16.81;49.12
70841;BME280;58465;51.534;9.934;2023-05-27T07:31:48;101096.28;;;17.04;48.59
70841;BME280;58465;51.534;9.934;2023-05-27T07:34:14;101092.78;;;17.28;47.88
70841;BME280;58465;51.534;9.934;2023-05-27T07:36:39;101085.69;;;17.51;47.41
70841;BME280;58465;51.534;9.934;2023-05-27T07:39:04;101087.63;;;17.73;46.95
70841;BME280;58465;51.534;9.934;2023-05-27T07:41:29;101083.69;;;17.31;47.92
70841;BME280;58465;51.534;9.934;2023-05-27T07:43:56;101085.31;;;17.10;48.02
70841;BME280;58465;51.534;9.934;2023-05-27T07:46:21;101083.91;;;17.25;48.22
70841;BME280;58465;51.534;9.934;2023-05-27T07:48:46;101079.53;;;17.73;46.91
70841;BME280;58465;51.534;9.934;2023-05-27T07:51:11;101078.38;;;17.80;46.70
70841;BME280;58465;51.534;9.934;2023-05-27T07:53:37;101073.91;;;17.79;46.36
70841;BME280;58465;51.534;9.934;2023-05-27T07:56:02;101075.16;;;17.43;47.22
70841;BME280;58465;51.534;9.934;2023-05-27T07:58:28;101080.56;;;17.69;46.92
70841;BME280;58465;51.534;9.934;2023-05-27T08:00:53;101079.25;;;18.06;45.99
70841;BME280;58465;51.534;9.934;2023-05-27T08:03:18;101074.44;;;18.37;45.25
70841;BME280;58465;51.534;9.934;2023-05-27T08:05:43;101066.06;;;18.68;44.85
70841;BME280;58465;51.534;9.934;2023-05-27T08:08:09;101057.13;;;18.88;44.53
70841;BME280;58465;51.534;9.934;2023-05-27T08:10:34;101056.16;;;18.67;44.58
70841;BME280;58465;51.534;9.934;2023-05-27T08:12:59;101048.81;;;19.14;43.81
70841;BME280;58465;51.534;9.934;2023-05-27T08:15:25;101046.13;;;19.35;42.89
70841;BME280;58465;51.534;9.934;2023-05-27T08:17:50;101038.25;;;18.86;43.30
70841;BME280;58465;51.534;9.934;2023-05-27T08:20:15;101028.81;;;18.51;42.41
70841;BME280;58465;51.534;9.934;2023-05-27T08:22:41;101029.19;;;19.09;41.75
70841;BME280;58465;51.534;9.934;2023-05-27T08:25:06;101027.50;;;19.27;41.02
70841;BME280;58465;51.534;9.934;2023-05-27T08:30:11;101027.41;;;18.65;41.18
70841;BME280;58465;51.534;9.934;2023-05-27T08:32:36;101031.31;;;18.56;41.38
70841;BME280;58465;51.534;9.934;2023-05-27T08:35:02;101025.00;;;18.10;41.97
70841;BME280;58465;51.534;9.934;2023-05-27T08:37:27;101025.22;;;18.28;42.18
70841;BME280;58465;51.534;9.934;2023-05-27T08:39:52;101016.13;;;17.84;43.39
70841;BME280;58465;51.534;9.934;2023-05-27T08:42:19;101017.63;;;17.91;42.99
70841;BME280;58465;51.534;9.934;2023-05-27T08:44:45;101016.69;;;17.92;42.93
70841;BME280;58465;51.534;9.934;2023-05-27T08:47:11;101009.38;;;17.95;42.71
70841;BME280;58465;51.534;9.934;2023-05-27T08:49:36;101017.19;;;18.03;42.31
70841;BME280;58465;51.534;9.934;2023-05-27T08:52:02;101019.66;;;18.32;42.02
70841;BME280;58465;51.534;9.934;2023-05-27T08:54:29;101006.91;;;18.59;41.49
70841;BME280;58465;51.534;9.934;2023-05-27T08:56:59;101007.53;;;18.87;41.37
70841;BME280;58465;51.534;9.934;2023-05-27T08:59:27;101007.13;;;18.53;41.76
70841;BME280;58465;51.534;9.934;2023-05-27T09:01:54;101003.75;;;18.70;41.91
70841;BME280;58465;51.534;9.934;2023-05-27T09:04:20;101001.44;;;18.61;42.29
70841;BME280;58465;51.534;9.934;2023-05-27T09:06:46;100990.41;;;18.87;41.73
70841;BME280;58465;51.534;9.934;2023-05-27T09:09:11;100990.06;;;19.16;40.87
70841;BME280;58465;51.534;9.934;2023-05-27T09:11:39;100978.44;;;19.55;40.44
70841;BME280;58465;51.534;9.934;2023-05-27T09:14:05;100991.50;;;19.86;39.72
70841;BME280;58465;51.534;9.934;2023-05-27T09:16:30;100985.81;;;19.51;40.48
70841;BME280;58465;51.534;9.934;2023-05-27T09:18:56;100981.75;;;19.21;41.43
70841;BME280;58465;51.534;9.934;2023-05-27T09:21:24;100980.56;;;19.69;40.90
70841;BME280;58465;51.534;9.934;2023-05-27T09:23:50;100981.75;;;19.61;40.85
70841;BME280;58465;51.534;9.934;2023-05-27T09:26:15;100976.03;;;19.69;40.53
70841;BME280;58465;51.534;9.934;2023-05-27T09:28:41;100971.22;;;19.94;40.20
70841;BME280;58465;51.534;9.934;2023-05-27T09:31:09;100964.50;;;20.22;39.75
70841;BME280;58465;51.534;9.934;2023-05-27T09:33:38;100975.72;;;20.70;38.69
70841;BME280;58465;51.534;9.934;2023-05-27T09:36:04;100971.94;;;20.92;38.22
70841;BME280;58465;51.534;9.934;2023-05-27T09:38:34;100974.91;;;20.12;39.81
70841;BME280;58465;51.534;9.934;2023-05-27T09:41:02;100966.94;;;20.28;39.72
70841;BME280;58465;51.534;9.934;2023-05-27T09:43:29;100977.53;;;20.32;39.29
70841;BME280;58465;51.534;9.934;2023-05-27T09:45:59;100971.53;;;20.26;39.50
70841;BME280;58465;51.534;9.934;2023-05-27T09:48:31;100971.50;;;20.46;39.39
70841;BME280;58465;51.534;9.934;2023-05-27T09:50:58;100966.22;;;20.43;39.20
70841;BME280;58465;51.534;9.934;2023-05-27T09:53:36;100968.22;;;20.76;38.35
70841;BME280;58465;51.534;9.934;2023-05-27T09:56:03;100952.69;;;20.60;37.40
70841;BME280;58465;51.534;9.934;2023-05-27T09:58:29;100952.34;;;20.49;37.50
70841;BME280;58465;51.534;9.934;2023-05-27T10:01:01;100952.53;;;20.63;37.21
70841;BME280;58465;51.534;9.934;2023-05-27T10:03:27;100949.53;;;20.51;37.38
70841;BME280;58465;51.534;9.934;2023-05-27T10:05:55;100950.03;;;20.21;38.23
70841;BME280;58465;51.534;9.934;2023-05-27T10:08:20;100948.47;;;20.36;37.43
70841;BME280;58465;51.534;9.934;2023-05-27T10:10:46;100936.88;;;20.68;36.40
70841;BME280;58465;51.534;9.934;2023-05-27T10:13:14;100943.00;;;20.73;35.78
70841;BME280;58465;51.534;9.934;2023-05-27T10:15:46;100943.81;;;20.93;35.41
70841;BME280;58465;51.534;9.934;2023-05-27T10:18:22;100936.75;;;20.71;35.94
70841;BME280;58465;51.534;9.934;2023-05-27T10:20:49;100939.97;;;20.97;34.76
70841;BME280;58465;51.534;9.934;2023-05-27T10:23:16;100929.84;;;21.52;33.51
70841;BME280;58465;51.534;9.934;2023-05-27T10:25:47;100927.59;;;21.60;33.05
70841;BME280;58465;51.534;9.934;2023-05-27T10:28:46;100921.31;;;21.75;31.88
70841;BME280;58465;51.534;9.934;2023-05-27T10:31:14;100920.41;;;21.25;32.20
70841;BME280;58465;51.534;9.934;2023-05-27T10:33:52;100913.63;;;20.99;32.41
70841;BME280;58465;51.534;9.934;2023-05-27T10:36:25;100917.00;;;21.21;32.79
70841;BME280;58465;51.534;9.934;2023-05-27T10:41:53;100913.47;;;21.36;32.88
70841;BME280;58465;51.534;9.934;2023-05-27T10:44:31;100911.78;;;21.17;33.11
70841;BME280;58465;51.534;9.934;2023-05-27T10:47:13;100904.38;;;21.20;32.69
70841;BME280;58465;51.534;9.934;2023-05-27T10:49:39;100897.38;;;21.15;32.89
70841;BME280;58465;51.534;9.934;2023-05-27T10:52:09;100895.41;;;21.35;32.87
70841;BME280;58465;51.534;9.934;2023-05-27T10:54:38;100893.25;;;21.25;32.86
70841;BME280;58465;51.534;9.934;2023-05-27T10:57:08;100896.34;;;21.52;32.90
70841;BME280;58465;51.534;9.934;2023-05-27T10:59:51;100901.22;;;21.45;33.23
70841;BME280;58465;51.534;9.934;2023-05-27T11:02:28;100889.09;;;21.68;32.76
70841;BME280;58465;51.534;9.934;2023-05-27T11:04:56;100883.28;;;21.58;33.26
70841;BME280;58465;51.534;9.934;2023-05-27T11:07:23;100884.38;;;21.38;33.72
70841;BME280;58465;51.534;9.934;2023-05-27T11:09:51;100884.63;;;21.67;33.24
70841;BME280;58465;51.534;9.934;2023-05-27T11:12:19;100873.59;;;21.70;33.42
70841;BME280;58465;51.534;9.934;2023-05-27T11:14:47;100873.97;;;21.95;33.37
70841;BME280;58465;51.534;9.934;2023-05-27T11:17:12;100876.56;;;21.98;33.58
70841;BME280;58465;51.534;9.934;2023-05-27T11:19:39;100870.28;;;21.96;33.37
70841;BME280;58465;51.534;9.934;2023-05-27T11:22:08;100866.69;;;22.43;32.88
70841;BME280;58465;51.534;9.934;2023-05-27T11:24:35;100867.69;;;23.31;30.91
70841;BME280;58465;51.534;9.934;2023-05-27T11:27:11;100861.47;;;23.29;30.84
70841;BME280;58465;51.534;9.934;2023-05-27T11:29:37;100864.09;;;24.57;28.76
70841;BME280;58465;51.534;9.934;2023-05-27T11:32:04;100862.53;;;25.45;27.69
70841;BME280;58465;51.534;9.934;2023-05-27T11:34:33;100855.56;;;27.90;24.91
70841;BME280;58465;51.534;9.934;2023-05-27T11:37:01;100847.91;;;28.70;23.31
70841;BME280;58465;51.534;9.934;2023-05-27T11:39:29;100849.94;;;28.25;24.05
70841;BME280;58465;51.534;9.934;2023-05-27T11:41:56;100853.56;;;29.01;22.91
70841;BME280;58465;51.534;9.934;2023-05-27T11:44:23;100852.13;;;29.06;21.67
70841;BME280;58465;51.534;9.934;2023-05-27T11:46:50;100854.78;;;25.64;25.75
70841;BME280;58465;51.534;9.934;2023-05-27T11:49:17;100841.47;;;24.28;28.37
70841;BME280;58465;51.534;9.934;2023-05-27T11:51:44;100844.84;;;26.84;26.02
70841;BME280;58465;51.534;9.934;2023-05-27T11:54:29;100833.97;;;28.62;23.05
70841;BME280;58465;51.534;9.934;2023-05-27T11:56:56;100836.13;;;31.95;20.23
70841;BME280;58465;51.534;9.934;2023-05-27T11:59:24;100827.81;;;30.14;21.04
70841;BME280;58465;51.534;9.934;2023-05-27T12:01:50;100828.38;;;27.87;23.52
70841;BME280;58465;51.534;9.934;2023-05-27T12:04:16;100816.19;;;26.53;25.09
70841;BME280;58465;51.534;9.934;2023-05-27T12:06:42;100805.38;;;26.51;25.59
70841;BME280;58465;51.534;9.934;2023-05-27T12:09:08;100804.72;;;28.18;23.61
70841;BME280;58465;51.534;9.934;2023-05-27T12:11:34;100808.84;;;27.34;23.88
70841;BME280;58465;51.534;9.934;2023-05-27T12:14:00;100802.28;;;28.36;23.07
70841;BME280;58465;51.534;9.934;2023-05-27T12:16:26;100805.16;;;29.70;21.88
70841;BME280;58465;51.534;9.934;2023-05-27T12:18:51;100793.34;;;31.06;20.71
70841;BME280;58465;51.534;9.934;2023-05-27T12:21:17;100792.50;;;32.26;20.12
70841;BME280;58465;51.534;9.934;2023-05-27T12:23:42;100803.63;;;35.95;16.60
70841;BME280;58465;51.534;9.934;2023-05-27T12:26:08;100798.72;;;33.69;17.67
70841;BME280;58465;51.534;9.934;2023-05-27T12:28:34;100789.16;;;33.11;17.91
70841;BME280;58465;51.534;9.934;2023-05-27T12:31:00;100785.63;;;32.66;18.97
70841;BME280;58465;51.534;9.934;2023-05-27T12:33:25;100777.19;;;33.29;18.03
70841;BME280;58465;51.534;9.934;2023-05-27T12:35:51;100771.97;;;35.96;15.31
70841;BME280;58465;51.534;9.934;2023-05-27T12:38:17;100767.25;;;35.58;15.80
70841;BME280;58465;51.534;9.934;2023-05-27T12:40:42;100761.50;;;36.68;14.88
70841;BME280;58465;51.534;9.934;2023-05-27T12:43:07;100762.81;;;38.57;13.74
70841;BME280;58465;51.534;9.934;2023-05-27T12:45:33;100761.34;;;40.55;12.46
70841;BME280;58465;51.534;9.934;2023-05-27T12:47:58;100758.50;;;38.54;13.59
70841;BME280;58465;51.534;9.934;2023-05-27T12:50:24;100767.28;;;37.57;13.96
70841;BME280;58465;51.534;9.934;2023-05-27T12:52:51;100753.66;;;35.79;15.87